createdAt,value
2023-04-18T00:04:46.721Z,7.90
2023-04-18T00:09:54.182Z,7.80
2023-04-18T00:15:03.087Z,7.60
2023-04-18T00:20:13.532Z,7.60
2023-04-18T00:25:19.871Z,7.70
2023-04-18T00:30:27.281Z,7.70
2023-04-18T00:35:34.788Z,7.80
2023-04-18T00:40:41.683Z,7.90
2023-04-18T00:45:47.433Z,7.80
2023-04-18T00:50:54.178Z,7.80
2023-04-18T00:56:00.360Z,7.90
2023-04-18T01:01:06.544Z,7.90
2023-04-18T01:06:12.356Z,8.10
2023-04-18T01:11:19.193Z,7.90
2023-04-18T01:16:25.770Z,7.50
2023-04-18T01:21:34.026Z,7.30
2023-04-18T01:26:40.812Z,7.60
2023-04-18T01:31:47.234Z,7.60
2023-04-18T01:36:53.232Z,7.40
2023-04-18T01:41:58.837Z,7.50
2023-04-18T01:47:05.441Z,7.60
2023-04-18T01:52:12.739Z,7.40
2023-04-18T01:57:18.998Z,7.40
2023-04-18T02:02:24.846Z,7.50
2023-04-18T02:07:31.735Z,7.60
2023-04-18T02:12:37.462Z,7.70
2023-04-18T02:17:43.834Z,7.60
2023-04-18T02:22:49.689Z,7.60
2023-04-18T02:27:56.109Z,7.50
2023-04-18T02:33:02.450Z,7.30
2023-04-18T02:38:08.762Z,7.20
2023-04-18T02:43:15.040Z,7.20
2023-04-18T02:48:20.675Z,7.10
2023-04-18T02:53:26.652Z,7.00
2023-04-18T02:58:34.462Z,7.00
2023-04-18T03:03:40.270Z,6.90
2023-04-18T03:08:46.361Z,7.20
2023-04-18T03:13:52.963Z,7.30
2023-04-18T03:18:58.729Z,7.30
2023-04-18T03:24:04.572Z,7.30
2023-04-18T03:29:10.665Z,7.30
2023-04-18T03:34:16.777Z,7.10
2023-04-18T03:39:23.349Z,7.10
2023-04-18T03:44:29.332Z,7.30
2023-04-18T03:49:35.143Z,7.40
2023-04-18T03:54:41.523Z,7.30
2023-04-18T03:59:48.603Z,7.30
2023-04-18T04:04:54.696Z,7.30
2023-04-18T04:10:01.416Z,7.40
2023-04-18T04:15:08.490Z,7.50
2023-04-18T04:20:14.375Z,7.40
2023-04-18T04:25:22.159Z,7.50
2023-04-18T04:30:28.806Z,7.30
2023-04-18T04:35:36.821Z,7.30
2023-04-18T04:40:43.902Z,7.40
2023-04-18T04:45:53.262Z,7.50
2023-04-18T04:51:00.583Z,7.50
2023-04-18T04:56:07.730Z,7.50
2023-04-18T05:01:13.624Z,7.50
2023-04-18T05:06:21.042Z,7.50
2023-04-18T05:11:27.078Z,7.60
2023-04-18T05:16:33.530Z,7.60
2023-04-18T05:21:40.082Z,7.50
2023-04-18T05:26:47.123Z,7.40
2023-04-18T05:31:53.081Z,7.40
2023-04-18T05:37:02.704Z,7.50
2023-04-18T05:42:08.516Z,7.60
2023-04-18T05:47:14.776Z,7.60
2023-04-18T05:52:20.422Z,7.50
2023-04-18T05:57:26.773Z,7.40
2023-04-18T06:02:32.733Z,7.40
2023-04-18T06:07:38.747Z,7.40
2023-04-18T06:12:45.209Z,7.40
2023-04-18T06:17:52.343Z,7.40
2023-04-18T06:22:58.285Z,7.40
2023-04-18T06:28:04.503Z,7.40
2023-04-18T06:33:11.139Z,7.10
2023-04-18T06:38:16.937Z,7.10
2023-04-18T06:43:22.764Z,6.90
2023-04-18T06:48:29.498Z,7.20
2023-04-18T06:53:36.535Z,7.30
2023-04-18T06:58:42.502Z,7.20
2023-04-18T07:03:48.300Z,7.40
2023-04-18T07:08:56.816Z,7.20
2023-04-18T07:14:03.319Z,7.20
2023-04-18T07:19:09.746Z,7.30
2023-04-18T07:24:15.772Z,7.30
2023-04-18T07:29:21.799Z,7.30
2023-04-18T07:34:29.560Z,7.30
2023-04-18T07:39:36.335Z,7.10
2023-04-18T07:44:41.825Z,7.20
2023-04-18T07:49:47.902Z,7.40
2023-04-18T07:54:53.640Z,7.30
2023-04-18T07:59:59.912Z,7.40
2023-04-18T08:05:05.695Z,7.40
2023-04-18T08:10:12.688Z,7.40
2023-04-18T08:15:18.794Z,7.50
2023-04-18T08:20:24.881Z,7.50
2023-04-18T08:25:31.756Z,7.60
2023-04-18T08:30:37.451Z,7.70
2023-04-18T08:35:43.524Z,7.70
2023-04-18T08:40:49.296Z,7.60
2023-04-18T08:45:58.790Z,7.60
2023-04-18T08:51:05.348Z,7.70
2023-04-18T08:56:13.252Z,7.70
2023-04-18T09:01:19.613Z,7.80
2023-04-18T09:06:28.014Z,7.80
2023-04-18T09:11:34.618Z,7.90
2023-04-18T09:16:47.555Z,7.90
2023-04-18T09:21:59.258Z,8.00
2023-04-18T09:27:05.143Z,8.10
2023-04-18T09:32:11.270Z,8.00
2023-04-18T09:37:17.390Z,8.10
2023-04-18T09:42:26.122Z,8.10
2023-04-18T09:47:36.792Z,8.20
2023-04-18T09:52:44.424Z,8.20
2023-04-18T09:57:51.221Z,8.20
2023-04-18T10:02:59.262Z,8.10
2023-04-18T10:08:08.371Z,7.90
2023-04-18T10:13:15.479Z,7.70
2023-04-18T10:18:25.057Z,7.80
2023-04-18T10:23:36.295Z,8.00
2023-04-18T10:29:01.450Z,8.10
2023-04-18T10:34:08.211Z,8.00
2023-04-18T10:39:26.170Z,7.90
2023-04-18T10:44:31.843Z,8.00
2023-04-18T10:49:38.524Z,8.10
2023-04-18T10:54:59.251Z,7.70
2023-04-18T11:00:05.938Z,8.00
2023-04-18T11:05:12.008Z,8.10
2023-04-18T11:10:22.798Z,8.30
2023-04-18T11:15:31.014Z,8.40
2023-04-18T11:20:41.728Z,8.40
2023-04-18T11:25:48.345Z,8.40
2023-04-18T11:30:57.716Z,8.50
2023-04-18T11:36:03.980Z,8.40
2023-04-18T11:41:19.158Z,8.50
2023-04-18T11:46:24.649Z,8.40
2023-04-18T11:51:35.919Z,8.50
2023-04-18T11:56:49.541Z,8.50
2023-04-18T12:02:14.708Z,8.40
2023-04-18T12:07:10.192Z,8.50
2023-04-18T12:12:19.604Z,8.40
2023-04-18T12:17:28.246Z,8.30
2023-04-18T12:22:41.158Z,8.60
2023-04-18T12:28:16.099Z,8.70
2023-04-18T12:33:22.167Z,8.70
2023-04-18T12:38:28.482Z,8.80
2023-04-18T12:43:34.932Z,8.60
2023-04-18T12:48:40.880Z,8.70
2023-04-18T12:53:47.032Z,8.60
2023-04-18T12:58:52.797Z,8.60
2023-04-18T13:04:11.609Z,8.60
2023-04-18T13:09:10.446Z,8.60
2023-04-18T13:14:16.289Z,8.60
2023-04-18T13:19:22.953Z,8.50
2023-04-18T13:24:29.311Z,8.30
2023-04-18T13:29:35.920Z,8.20
2023-04-18T13:34:48.965Z,8.30
2023-04-18T13:39:55.199Z,8.50
2023-04-18T13:45:02.146Z,8.60
2023-04-18T13:50:09.752Z,8.50
2023-04-18T13:55:17.153Z,8.60
2023-04-18T14:00:23.502Z,8.70
2023-04-18T14:05:30.471Z,8.70
2023-04-18T14:10:36.549Z,8.70
2023-04-18T14:15:42.377Z,8.60
2023-04-18T14:20:48.838Z,8.60
2023-04-18T14:25:54.424Z,8.60
2023-04-18T14:31:02.287Z,8.60
2023-04-18T14:36:11.807Z,8.60
2023-04-18T14:41:20.003Z,8.70
2023-04-18T14:46:29.737Z,8.50
2023-04-18T14:51:35.733Z,8.50
2023-04-18T14:56:42.102Z,8.70
2023-04-18T15:01:47.949Z,8.70
2023-04-18T15:06:54.533Z,8.70
2023-04-18T15:12:00.533Z,8.70
2023-04-18T15:17:07.739Z,8.70
2023-04-18T15:22:14.243Z,8.90
2023-04-18T15:27:20.004Z,8.90
2023-04-18T15:32:26.089Z,8.90
2023-04-18T15:37:32.797Z,8.90
2023-04-18T15:42:39.861Z,8.90
2023-04-18T15:47:45.549Z,8.90
2023-04-18T15:52:52.413Z,9.00
2023-04-18T15:57:58.008Z,8.90
2023-04-18T16:03:05.107Z,8.90
2023-04-18T16:08:11.675Z,8.90
2023-04-18T16:13:18.048Z,9.00
2023-04-18T16:18:23.901Z,9.00
2023-04-18T16:23:32.642Z,9.00
2023-04-18T16:28:38.592Z,8.80
2023-04-18T16:33:46.008Z,8.80
2023-04-18T16:38:53.101Z,8.90
2023-04-18T16:43:58.814Z,8.70
2023-04-18T16:49:05.349Z,8.70
2023-04-18T16:54:12.844Z,8.70
2023-04-18T16:59:19.876Z,8.70
2023-04-18T17:04:30.232Z,8.60
2023-04-18T17:09:36.699Z,8.70
2023-04-18T17:14:42.868Z,8.60
2023-04-18T17:19:49.439Z,8.60
2023-04-18T17:24:55.250Z,8.50
2023-04-18T17:30:03.140Z,8.50
2023-04-18T17:35:09.862Z,8.50
2023-04-18T17:40:15.393Z,8.50
2023-04-18T17:45:23.031Z,8.50
2023-04-18T17:50:30.404Z,8.60
2023-04-18T17:55:37.414Z,8.50
2023-04-18T18:00:43.952Z,8.50
2023-04-18T18:05:51.922Z,8.60
2023-04-18T18:10:58.824Z,8.70
2023-04-18T18:16:05.530Z,8.70
2023-04-18T18:21:12.997Z,8.80
2023-04-18T18:26:20.294Z,8.80
2023-04-18T18:31:30.438Z,8.80
2023-04-18T18:36:36.820Z,8.80
2023-04-18T18:41:45.521Z,8.70
2023-04-18T18:46:52.978Z,8.60
2023-04-18T18:51:59.357Z,8.60
2023-04-18T18:57:05.966Z,8.50
2023-04-18T19:02:12.540Z,8.60
2023-04-18T19:07:20.404Z,8.60
2023-04-18T19:12:27.504Z,8.70
2023-04-18T19:17:33.985Z,8.70
2023-04-18T19:22:40.238Z,8.60
2023-04-18T19:27:46.595Z,8.50
2023-04-18T19:32:52.686Z,8.50
2023-04-18T19:38:01.249Z,8.50
2023-04-18T19:43:09.751Z,8.40
2023-04-18T19:48:16.508Z,8.50
2023-04-18T19:53:23.591Z,8.60
2023-04-18T19:58:42.275Z,8.70
2023-04-18T20:03:49.552Z,8.80
2023-04-18T20:08:56.143Z,8.80
2023-04-18T20:14:03.416Z,8.90
2023-04-18T20:19:12.455Z,8.80
2023-04-18T20:24:17.847Z,8.80
2023-04-18T20:29:23.790Z,8.80
2023-04-18T20:34:29.231Z,8.80
2023-04-18T20:39:36.911Z,8.70
2023-04-18T20:44:44.807Z,8.80
2023-04-18T20:49:50.759Z,8.80
2023-04-18T20:54:56.317Z,8.80
2023-04-18T21:00:03.042Z,8.80
2023-04-18T21:05:09.355Z,8.90
2023-04-18T21:10:15.679Z,8.80
2023-04-18T21:15:22.037Z,8.90
2023-04-18T21:20:28.184Z,8.80
2023-04-18T21:25:35.128Z,8.80
2023-04-18T21:30:40.847Z,8.80
2023-04-18T21:35:48.467Z,8.80
2023-04-18T21:40:54.309Z,8.80
2023-04-18T21:46:00.380Z,8.80
2023-04-18T21:51:06.935Z,8.80
2023-04-18T21:56:13.068Z,8.90
2023-04-18T22:01:20.035Z,8.80
2023-04-18T22:06:26.687Z,8.70
2023-04-18T22:11:33.746Z,8.70
2023-04-18T22:16:41.097Z,8.80
2023-04-18T22:21:48.480Z,8.80
2023-04-18T22:26:54.575Z,8.80
2023-04-18T22:32:00.804Z,8.90
2023-04-18T22:37:07.766Z,8.80
2023-04-18T22:42:13.842Z,8.80
2023-04-18T22:47:21.054Z,8.70
2023-04-18T22:52:26.908Z,8.70
2023-04-18T22:57:33.544Z,8.70
2023-04-18T23:02:40.355Z,8.70
2023-04-18T23:07:46.492Z,8.70
2023-04-18T23:12:53.088Z,8.70
2023-04-18T23:17:59.601Z,8.70
2023-04-18T23:23:07.798Z,8.70
2023-04-18T23:28:18.217Z,8.70
2023-04-18T23:33:24.233Z,8.70
2023-04-18T23:38:30.105Z,8.70
2023-04-18T23:43:36.647Z,8.70
2023-04-18T23:48:43.059Z,8.70
2023-04-18T23:53:48.839Z,8.60
2023-04-18T23:58:55.064Z,8.70
